sensor_id;sensor_type;location;lat;lon;timestamp;P1;durP1;ratioP1;P2;durP2;ratioP2
79585;SDS011;69054;50.866;4.636;2023-05-23T00:02:05;50.20;;;24.83;;
79585;SDS011;69054;50.866;4.636;2023-05-23T00:04:32;50.38;;;22.98;;
79585;SDS011;69054;50.866;4.636;2023-05-23T00:07:00;54.83;;;23.95;;
79585;SDS011;69054;50.866;4.636;2023-05-23T00:09:25;48.83;;;22.77;;
79585;SDS011;69054;50.866;4.636;2023-05-23T00:11:50;44.75;;;22.02;;
79585;SDS011;69054;50.866;4.636;2023-05-23T00:14:16;49.45;;;24.45;;
79585;SDS011;69054;50.866;4.636;2023-05-23T00:16:42;54.53;;;24.15;;
79585;SDS011;69054;50.866;4.636;2023-05-23T00:19:12;48.42;;;22.98;;
79585;SDS011;69054;50.866;4.636;2023-05-23T00:21:41;45.38;;;21.50;;
79585;SDS011;69054;50.866;4.636;2023-05-23T00:24:12;45.35;;;23.08;;
79585;SDS011;69054;50.866;4.636;2023-05-23T00:26:37;47.28;;;22.33;;
79585;SDS011;69054;50.866;4.636;2023-05-23T00:29:03;44.60;;;21.98;;
79585;SDS011;69054;50.866;4.636;2023-05-23T00:31:28;47.30;;;22.98;;
79585;SDS011;69054;50.866;4.636;2023-05-23T00:33:53;51.58;;;22.50;;
79585;SDS011;69054;50.866;4.636;2023-05-23T00:36:19;45.58;;;21.98;;
79585;SDS011;69054;50.866;4.636;2023-05-23T00:38:44;50.75;;;22.58;;
79585;SDS011;69054;50.866;4.636;2023-05-23T00:41:10;48.35;;;22.73;;
79585;SDS011;69054;50.866;4.636;2023-05-23T00:43:35;47.25;;;21.98;;
79585;SDS011;69054;50.866;4.636;2023-05-23T00:46:01;40.63;;;20.85;;
79585;SDS011;69054;50.866;4.636;2023-05-23T00:48:27;44.80;;;21.17;;
79585;SDS011;69054;50.866;4.636;2023-05-23T00:50:53;40.85;;;20.40;;
79585;SDS011;69054;50.866;4.636;2023-05-23T00:53:19;36.72;;;19.48;;
79585;SDS011;69054;50.866;4.636;2023-05-23T00:55:45;41.90;;;20.42;;
79585;SDS011;69054;50.866;4.636;2023-05-23T00:58:11;47.00;;;20.88;;
79585;SDS011;69054;50.866;4.636;2023-05-23T01:00:39;41.65;;;19.92;;
79585;SDS011;69054;50.866;4.636;2023-05-23T01:03:05;52.08;;;22.17;;
79585;SDS011;69054;50.866;4.636;2023-05-23T01:05:30;45.50;;;21.80;;
79585;SDS011;69054;50.866;4.636;2023-05-23T01:07:56;49.00;;;23.25;;
79585;SDS011;69054;50.866;4.636;2023-05-23T01:10:25;46.85;;;21.33;;
79585;SDS011;69054;50.866;4.636;2023-05-23T01:18:26;49.88;;;23.20;;
79585;SDS011;69054;50.866;4.636;2023-05-23T01:21:02;50.63;;;22.15;;
79585;SDS011;69054;50.866;4.636;2023-05-23T01:26:21;55.90;;;23.43;;
79585;SDS011;69054;50.866;4.636;2023-05-23T01:28:55;46.78;;;22.40;;
79585;SDS011;69054;50.866;4.636;2023-05-23T01:31:42;54.20;;;24.67;;
79585;SDS011;69054;50.866;4.636;2023-05-23T01:34:10;43.33;;;24.38;;
79585;SDS011;69054;50.866;4.636;2023-05-23T01:36:40;50.80;;;23.85;;
79585;SDS011;69054;50.866;4.636;2023-05-23T01:39:07;49.88;;;24.55;;
79585;SDS011;69054;50.866;4.636;2023-05-23T01:41:32;50.38;;;23.15;;
79585;SDS011;69054;50.866;4.636;2023-05-23T01:43:58;50.55;;;23.50;;
79585;SDS011;69054;50.866;4.636;2023-05-23T01:46:24;51.92;;;23.60;;
79585;SDS011;69054;50.866;4.636;2023-05-23T01:48:52;51.15;;;23.30;;
79585;SDS011;69054;50.866;4.636;2023-05-23T01:51:19;51.33;;;24.55;;
79585;SDS011;69054;50.866;4.636;2023-05-23T01:53:46;45.05;;;21.40;;
79585;SDS011;69054;50.866;4.636;2023-05-23T01:56:12;47.50;;;22.20;;
79585;SDS011;69054;50.866;4.636;2023-05-23T01:58:38;47.25;;;23.30;;
79585;SDS011;69054;50.866;4.636;2023-05-23T02:01:03;51.88;;;23.90;;
79585;SDS011;69054;50.866;4.636;2023-05-23T02:03:29;50.67;;;23.17;;
79585;SDS011;69054;50.866;4.636;2023-05-23T02:05:54;53.78;;;22.48;;
79585;SDS011;69054;50.866;4.636;2023-05-23T02:08:20;45.47;;;20.75;;
79585;SDS011;69054;50.866;4.636;2023-05-23T02:10:45;50.30;;;24.63;;
79585;SDS011;69054;50.866;4.636;2023-05-23T02:13:11;51.65;;;23.02;;
79585;SDS011;69054;50.866;4.636;2023-05-23T02:15:36;51.60;;;24.00;;
79585;SDS011;69054;50.866;4.636;2023-05-23T02:18:01;54.20;;;24.15;;
79585;SDS011;69054;50.866;4.636;2023-05-23T02:20:28;51.15;;;23.27;;
79585;SDS011;69054;50.866;4.636;2023-05-23T02:22:53;41.55;;;20.85;;
79585;SDS011;69054;50.866;4.636;2023-05-23T02:25:19;38.50;;;20.73;;
79585;SDS011;69054;50.866;4.636;2023-05-23T02:27:44;39.50;;;20.30;;
79585;SDS011;69054;50.866;4.636;2023-05-23T02:30:10;36.90;;;19.30;;
79585;SDS011;69054;50.866;4.636;2023-05-23T02:32:35;43.15;;;22.27;;
79585;SDS011;69054;50.866;4.636;2023-05-23T02:35:01;43.60;;;20.40;;
79585;SDS011;69054;50.866;4.636;2023-05-23T02:37:27;39.58;;;18.17;;
79585;SDS011;69054;50.866;4.636;2023-05-23T02:39:53;42.15;;;23.13;;
79585;SDS011;69054;50.866;4.636;2023-05-23T02:42:18;45.50;;;23.00;;
79585;SDS011;69054;50.866;4.636;2023-05-23T02:44:44;47.65;;;22.70;;
79585;SDS011;69054;50.866;4.636;2023-05-23T02:47:09;46.22;;;22.33;;
79585;SDS011;69054;50.866;4.636;2023-05-23T02:49:34;49.15;;;22.73;;
79585;SDS011;69054;50.866;4.636;2023-05-23T02:52:00;46.70;;;22.30;;
79585;SDS011;69054;50.866;4.636;2023-05-23T02:54:25;45.40;;;22.55;;
79585;SDS011;69054;50.866;4.636;2023-05-23T02:56:51;41.63;;;20.85;;
79585;SDS011;69054;50.866;4.636;2023-05-23T02:59:18;34.78;;;18.55;;
79585;SDS011;69054;50.866;4.636;2023-05-23T03:01:44;29.83;;;16.92;;
79585;SDS011;69054;50.866;4.636;2023-05-23T03:04:09;29.88;;;16.60;;
79585;SDS011;69054;50.866;4.636;2023-05-23T03:06:35;29.85;;;16.42;;
79585;SDS011;69054;50.866;4.636;2023-05-23T03:09:00;25.42;;;15.05;;
79585;SDS011;69054;50.866;4.636;2023-05-23T03:11:26;25.52;;;14.55;;
79585;SDS011;69054;50.866;4.636;2023-05-23T03:13:53;25.15;;;16.00;;
79585;SDS011;69054;50.866;4.636;2023-05-23T03:16:19;23.42;;;14.07;;
79585;SDS011;69054;50.866;4.636;2023-05-23T03:18:46;24.30;;;13.60;;
79585;SDS011;69054;50.866;4.636;2023-05-23T03:21:11;21.23;;;14.02;;
79585;SDS011;69054;50.866;4.636;2023-05-23T03:23:37;24.42;;;13.27;;
79585;SDS011;69054;50.866;4.636;2023-05-23T03:26:02;25.35;;;15.60;;
79585;SDS011;69054;50.866;4.636;2023-05-23T03:28:29;20.80;;;13.10;;
79585;SDS011;69054;50.866;4.636;2023-05-23T03:30:55;22.23;;;13.32;;
79585;SDS011;69054;50.866;4.636;2023-05-23T03:33:20;23.90;;;12.10;;
79585;SDS011;69054;50.866;4.636;2023-05-23T03:35:45;23.42;;;13.00;;
79585;SDS011;69054;50.866;4.636;2023-05-23T03:38:11;26.23;;;14.38;;
79585;SDS011;69054;50.866;4.636;2023-05-23T03:40:37;24.90;;;13.65;;
79585;SDS011;69054;50.866;4.636;2023-05-23T03:43:05;23.30;;;12.48;;
79585;SDS011;69054;50.866;4.636;2023-05-23T03:45:33;26.25;;;14.85;;
79585;SDS011;69054;50.866;4.636;2023-05-23T03:47:59;23.17;;;14.48;;
79585;SDS011;69054;50.866;4.636;2023-05-23T03:50:25;24.00;;;13.38;;
79585;SDS011;69054;50.866;4.636;2023-05-23T03:52:51;28.70;;;17.02;;
79585;SDS011;69054;50.866;4.636;2023-05-23T03:55:17;34.63;;;16.52;;
79585;SDS011;69054;50.866;4.636;2023-05-23T03:57:46;31.30;;;16.13;;
79585;SDS011;69054;50.866;4.636;2023-05-23T04:00:18;32.72;;;16.98;;
79585;SDS011;69054;50.866;4.636;2023-05-23T04:02:44;30.13;;;17.08;;
79585;SDS011;69054;50.866;4.636;2023-05-23T04:05:10;30.58;;;16.65;;
79585;SDS011;69054;50.866;4.636;2023-05-23T04:07:37;34.13;;;16.58;;
79585;SDS011;69054;50.866;4.636;2023-05-23T04:10:03;31.58;;;16.25;;
79585;SDS011;69054;50.866;4.636;2023-05-23T04:12:29;31.90;;;16.42;;
79585;SDS011;69054;50.866;4.636;2023-05-23T04:14:54;30.77;;;17.05;;
79585;SDS011;69054;50.866;4.636;2023-05-23T04:17:20;27.65;;;17.08;;
79585;SDS011;69054;50.866;4.636;2023-05-23T04:19:46;28.58;;;15.15;;
79585;SDS011;69054;50.866;4.636;2023-05-23T04:22:12;26.75;;;14.95;;
79585;SDS011;69054;50.866;4.636;2023-05-23T04:24:37;30.50;;;15.25;;
79585;SDS011;69054;50.866;4.636;2023-05-23T04:27:02;30.58;;;15.40;;
79585;SDS011;69054;50.866;4.636;2023-05-23T04:29:28;30.85;;;16.38;;
79585;SDS011;69054;50.866;4.636;2023-05-23T04:31:55;27.02;;;14.43;;
79585;SDS011;69054;50.866;4.636;2023-05-23T04:34:21;28.98;;;15.23;;
79585;SDS011;69054;50.866;4.636;2023-05-23T04:36:47;25.20;;;13.95;;
79585;SDS011;69054;50.866;4.636;2023-05-23T04:39:13;26.33;;;14.57;;
79585;SDS011;69054;50.866;4.636;2023-05-23T04:41:39;28.13;;;14.20;;
79585;SDS011;69054;50.866;4.636;2023-05-23T04:44:06;23.00;;;12.75;;
79585;SDS011;69054;50.866;4.636;2023-05-23T04:46:34;22.83;;;13.93;;
79585;SDS011;69054;50.866;4.636;2023-05-23T04:49:00;20.80;;;11.93;;
79585;SDS011;69054;50.866;4.636;2023-05-23T04:51:26;21.67;;;12.20;;
79585;SDS011;69054;50.866;4.636;2023-05-23T04:53:51;24.02;;;12.00;;
79585;SDS011;69054;50.866;4.636;2023-05-23T04:56:17;20.45;;;12.02;;
79585;SDS011;69054;50.866;4.636;2023-05-23T04:58:44;18.17;;;11.60;;
79585;SDS011;69054;50.866;4.636;2023-05-23T05:01:13;20.02;;;12.00;;
79585;SDS011;69054;50.866;4.636;2023-05-23T05:03:38;19.52;;;10.98;;
79585;SDS011;69054;50.866;4.636;2023-05-23T05:06:04;20.38;;;10.23;;
79585;SDS011;69054;50.866;4.636;2023-05-23T05:08:30;20.83;;;11.63;;
79585;SDS011;69054;50.866;4.636;2023-05-23T05:10:56;19.90;;;10.30;;
79585;SDS011;69054;50.866;4.636;2023-05-23T05:13:22;17.50;;;10.25;;
79585;SDS011;69054;50.866;4.636;2023-05-23T05:15:47;16.20;;;10.00;;
79585;SDS011;69054;50.866;4.636;2023-05-23T05:18:13;21.00;;;10.63;;
79585;SDS011;69054;50.866;4.636;2023-05-23T05:20:38;17.88;;;9.57;;
79585;SDS011;69054;50.866;4.636;2023-05-23T05:23:03;15.95;;;10.27;;
79585;SDS011;69054;50.866;4.636;2023-05-23T05:25:29;16.42;;;9.15;;
79585;SDS011;69054;50.866;4.636;2023-05-23T05:28:00;18.17;;;9.45;;
79585;SDS011;69054;50.866;4.636;2023-05-23T05:30:30;18.67;;;9.60;;
79585;SDS011;69054;50.866;4.636;2023-05-23T05:32:59;17.10;;;10.60;;
79585;SDS011;69054;50.866;4.636;2023-05-23T05:35:31;17.15;;;9.65;;
79585;SDS011;69054;50.866;4.636;2023-05-23T05:37:57;14.63;;;10.27;;
79585;SDS011;69054;50.866;4.636;2023-05-23T05:40:23;15.55;;;10.25;;
79585;SDS011;69054;50.866;4.636;2023-05-23T05:42:49;16.75;;;10.55;;
79585;SDS011;69054;50.866;4.636;2023-05-23T05:45:14;18.20;;;10.60;;
79585;SDS011;69054;50.866;4.636;2023-05-23T05:47:40;17.48;;;10.00;;
79585;SDS011;69054;50.866;4.636;2023-05-23T05:50:05;16.48;;;9.95;;
79585;SDS011;69054;50.866;4.636;2023-05-23T05:52:33;20.65;;;11.02;;
79585;SDS011;69054;50.866;4.636;2023-05-23T05:55:02;17.08;;;10.63;;
79585;SDS011;69054;50.866;4.636;2023-05-23T05:57:31;21.17;;;10.65;;
79585;SDS011;69054;50.866;4.636;2023-05-23T05:59:57;19.55;;;11.40;;
79585;SDS011;69054;50.866;4.636;2023-05-23T06:02:23;19.60;;;11.23;;
79585;SDS011;69054;50.866;4.636;2023-05-23T06:04:48;16.80;;;10.82;;
79585;SDS011;69054;50.866;4.636;2023-05-23T06:07:14;20.95;;;11.13;;
79585;SDS011;69054;50.866;4.636;2023-05-23T06:09:40;21.35;;;11.60;;
79585;SDS011;69054;50.866;4.636;2023-05-23T06:12:05;24.25;;;12.13;;
79585;SDS011;69054;50.866;4.636;2023-05-23T06:14:31;18.25;;;11.93;;
79585;SDS011;69054;50.866;4.636;2023-05-23T06:16:56;15.98;;;10.02;;
79585;SDS011;69054;50.866;4.636;2023-05-23T06:19:21;17.83;;;10.60;;
79585;SDS011;69054;50.866;4.636;2023-05-23T06:21:47;18.33;;;10.77;;
79585;SDS011;69054;50.866;4.636;2023-05-23T06:24:12;18.90;;;10.02;;
79585;SDS011;69054;50.866;4.636;2023-05-23T06:26:38;19.67;;;11.63;;
79585;SDS011;69054;50.866;4.636;2023-05-23T06:29:03;18.35;;;11.13;;
79585;SDS011;69054;50.866;4.636;2023-05-23T06:31:28;19.45;;;10.18;;
79585;SDS011;69054;50.866;4.636;2023-05-23T06:33:54;18.17;;;9.43;;
79585;SDS011;69054;50.866;4.636;2023-05-23T06:36:19;20.85;;;10.20;;
79585;SDS011;69054;50.866;4.636;2023-05-23T06:38:45;19.95;;;9.55;;
79585;SDS011;69054;50.866;4.636;2023-05-23T06:41:11;20.52;;;9.73;;
79585;SDS011;69054;50.866;4.636;2023-05-23T06:43:37;18.05;;;10.30;;
79585;SDS011;69054;50.866;4.636;2023-05-23T06:46:02;19.60;;;9.30;;
79585;SDS011;69054;50.866;4.636;2023-05-23T06:48:28;19.27;;;10.75;;
79585;SDS011;69054;50.866;4.636;2023-05-23T06:50:53;20.55;;;11.18;;
79585;SDS011;69054;50.866;4.636;2023-05-23T06:53:19;21.98;;;10.07;;
79585;SDS011;69054;50.866;4.636;2023-05-23T06:55:44;19.27;;;9.50;;
79585;SDS011;69054;50.866;4.636;2023-05-23T06:58:09;16.48;;;9.23;;
79585;SDS011;69054;50.866;4.636;2023-05-23T07:00:35;20.73;;;9.27;;
79585;SDS011;69054;50.866;4.636;2023-05-23T07:03:00;16.70;;;8.27;;
79585;SDS011;69054;50.866;4.636;2023-05-23T07:05:27;16.48;;;8.25;;
79585;SDS011;69054;50.866;4.636;2023-05-23T07:07:52;16.15;;;8.55;;
79585;SDS011;69054;50.866;4.636;2023-05-23T07:10:18;18.88;;;8.20;;
79585;SDS011;69054;50.866;4.636;2023-05-23T07:12:44;15.98;;;8.65;;
79585;SDS011;69054;50.866;4.636;2023-05-23T07:15:10;16.35;;;8.02;;
79585;SDS011;69054;50.866;4.636;2023-05-23T07:17:36;17.38;;;7.18;;
79585;SDS011;69054;50.866;4.636;2023-05-23T07:20:02;12.13;;;6.93;;
79585;SDS011;69054;50.866;4.636;2023-05-23T07:22:28;13.20;;;6.53;;
79585;SDS011;69054;50.866;4.636;2023-05-23T07:24:55;13.25;;;5.93;;
79585;SDS011;69054;50.866;4.636;2023-05-23T07:27:20;10.55;;;5.43;;
79585;SDS011;69054;50.866;4.636;2023-05-23T07:29:46;11.43;;;6.00;;
79585;SDS011;69054;50.866;4.636;2023-05-23T07:32:11;10.55;;;5.63;;
79585;SDS011;69054;50.866;4.636;2023-05-23T07:34:37;8.55;;;5.28;;
79585;SDS011;69054;50.866;4.636;2023-05-23T07:37:03;9.68;;;5.63;;
79585;SDS011;69054;50.866;4.636;2023-05-23T07:39:29;7.97;;;4.18;;
79585;SDS011;69054;50.866;4.636;2023-05-23T07:41:54;8.45;;;4.80;;
79585;SDS011;69054;50.866;4.636;2023-05-23T07:44:20;10.80;;;5.85;;
79585;SDS011;69054;50.866;4.636;2023-05-23T07:46:45;8.60;;;5.07;;
79585;SDS011;69054;50.866;4.636;2023-05-23T07:49:11;12.65;;;5.07;;
79585;SDS011;69054;50.866;4.636;2023-05-23T07:51:36;11.32;;;5.70;;
79585;SDS011;69054;50.866;4.636;2023-05-23T07:54:01;10.82;;;5.38;;
79585;SDS011;69054;50.866;4.636;2023-05-23T07:56:27;10.50;;;5.05;;
79585;SDS011;69054;50.866;4.636;2023-05-23T07:58:52;11.18;;;5.35;;
79585;SDS011;69054;50.866;4.636;2023-05-23T08:01:17;18.73;;;5.25;;
79585;SDS011;69054;50.866;4.636;2023-05-23T08:03:44;12.13;;;5.03;;
79585;SDS011;69054;50.866;4.636;2023-05-23T08:06:09;9.30;;;4.90;;
79585;SDS011;69054;50.866;4.636;2023-05-23T08:08:35;7.05;;;4.60;;
79585;SDS011;69054;50.866;4.636;2023-05-23T08:11:01;11.40;;;4.82;;
79585;SDS011;69054;50.866;4.636;2023-05-23T08:13:27;10.02;;;4.30;;
79585;SDS011;69054;50.866;4.636;2023-05-23T08:15:52;7.07;;;4.30;;
79585;SDS011;69054;50.866;4.636;2023-05-23T08:18:18;9.10;;;4.75;;
79585;SDS011;69054;50.866;4.636;2023-05-23T08:20:44;9.73;;;5.05;;
79585;SDS011;69054;50.866;4.636;2023-05-23T08:23:09;12.75;;;5.57;;
79585;SDS011;69054;50.866;4.636;2023-05-23T08:25:36;10.57;;;5.05;;
79585;SDS011;69054;50.866;4.636;2023-05-23T08:28:02;11.68;;;5.57;;
79585;SDS011;69054;50.866;4.636;2023-05-23T08:30:28;10.43;;;6.13;;
79585;SDS011;69054;50.866;4.636;2023-05-23T08:32:53;11.45;;;5.80;;
79585;SDS011;69054;50.866;4.636;2023-05-23T08:35:20;13.27;;;6.22;;
79585;SDS011;69054;50.866;4.636;2023-05-23T08:37:46;11.90;;;5.88;;
79585;SDS011;69054;50.866;4.636;2023-05-23T08:40:13;11.63;;;5.80;;
79585;SDS011;69054;50.866;4.636;2023-05-23T08:42:42;12.23;;;5.80;;
79585;SDS011;69054;50.866;4.636;2023-05-23T08:45:08;14.73;;;5.82;;
79585;SDS011;69054;50.866;4.636;2023-05-23T08:47:35;9.15;;;5.53;;
79585;SDS011;69054;50.866;4.636;2023-05-23T08:50:03;14.55;;;6.57;;
79585;SDS011;69054;50.866;4.636;2023-05-23T08:52:31;11.45;;;5.68;;
79585;SDS011;69054;50.866;4.636;2023-05-23T08:55:02;14.63;;;6.55;;
79585;SDS011;69054;50.866;4.636;2023-05-23T08:57:28;15.10;;;6.13;;
79585;SDS011;69054;50.866;4.636;2023-05-23T08:59:54;11.05;;;6.55;;
79585;SDS011;69054;50.866;4.636;2023-05-23T09:02:20;12.43;;;5.80;;
79585;SDS011;69054;50.866;4.636;2023-05-23T09:04:46;11.52;;;5.80;;
79585;SDS011;69054;50.866;4.636;2023-05-23T09:07:12;11.10;;;6.40;;
79585;SDS011;69054;50.866;4.636;2023-05-23T09:09:40;14.05;;;6.05;;
79585;SDS011;69054;50.866;4.636;2023-05-23T09:12:06;10.75;;;5.95;;
79585;SDS011;69054;50.866;4.636;2023-05-23T09:14:32;13.27;;;6.68;;
79585;SDS011;69054;50.866;4.636;2023-05-23T09:17:00;12.18;;;5.75;;
79585;SDS011;69054;50.866;4.636;2023-05-23T09:19:26;11.77;;;5.93;;
79585;SDS011;69054;50.866;4.636;2023-05-23T09:21:52;11.68;;;6.18;;
79585;SDS011;69054;50.866;4.636;2023-05-23T09:24:18;13.45;;;6.25;;
79585;SDS011;69054;50.866;4.636;2023-05-23T09:26:47;11.30;;;6.63;;
79585;SDS011;69054;50.866;4.636;2023-05-23T09:29:12;10.70;;;6.50;;
79585;SDS011;69054;50.866;4.636;2023-05-23T09:31:38;16.52;;;6.95;;
79585;SDS011;69054;50.866;4.636;2023-05-23T09:34:04;11.88;;;6.22;;
79585;SDS011;69054;50.866;4.636;2023-05-23T09:36:31;14.45;;;5.90;;
79585;SDS011;69054;50.866;4.636;2023-05-23T09:39:03;16.02;;;6.68;;
79585;SDS011;69054;50.866;4.636;2023-05-23T09:41:35;11.95;;;5.90;;
79585;SDS011;69054;50.866;4.636;2023-05-23T09:44:05;10.88;;;5.35;;
79585;SDS011;69054;50.866;4.636;2023-05-23T09:46:33;11.55;;;5.40;;
79585;SDS011;69054;50.866;4.636;2023-05-23T09:49:02;10.43;;;4.95;;
79585;SDS011;69054;50.866;4.636;2023-05-23T09:51:27;10.63;;;5.63;;
79585;SDS011;69054;50.866;4.636;2023-05-23T09:53:53;8.32;;;4.80;;
79585;SDS011;69054;50.866;4.636;2023-05-23T09:56:19;8.93;;;4.78;;
79585;SDS011;69054;50.866;4.636;2023-05-23T09:58:48;15.30;;;5.72;;
79585;SDS011;69054;50.866;4.636;2023-05-23T10:01:14;11.18;;;5.35;;
79585;SDS011;69054;50.866;4.636;2023-05-23T10:06:12;9.80;;;5.35;;
79585;SDS011;69054;50.866;4.636;2023-05-23T10:09:08;10.80;;;5.10;;
79585;SDS011;69054;50.866;4.636;2023-05-23T10:14:42;11.35;;;5.90;;
79585;SDS011;69054;50.866;4.636;2023-05-23T10:17:32;7.60;;;4.25;;
79585;SDS011;69054;50.866;4.636;2023-05-23T10:20:00;9.57;;;5.03;;
79585;SDS011;69054;50.866;4.636;2023-05-23T10:22:36;8.15;;;4.40;;
79585;SDS011;69054;50.866;4.636;2023-05-23T10:25:03;9.13;;;4.30;;
79585;SDS011;69054;50.866;4.636;2023-05-23T10:27:38;8.70;;;4.60;;
79585;SDS011;69054;50.866;4.636;2023-05-23T10:30:05;8.10;;;5.75;;
79585;SDS011;69054;50.866;4.636;2023-05-23T10:32:31;7.43;;;4.40;;
79585;SDS011;69054;50.866;4.636;2023-05-23T10:35:00;11.00;;;4.72;;
79585;SDS011;69054;50.866;4.636;2023-05-23T10:40:20;9.40;;;4.80;;
79585;SDS011;69054;50.866;4.636;2023-05-23T10:43:07;9.60;;;5.90;;
79585;SDS011;69054;50.866;4.636;2023-05-23T10:45:40;11.50;;;5.07;;
79585;SDS011;69054;50.866;4.636;2023-05-23T10:48:16;10.07;;;4.78;;
79585;SDS011;69054;50.866;4.636;2023-05-23T10:50:49;7.70;;;4.47;;
79585;SDS011;69054;50.866;4.636;2023-05-23T10:53:30;8.88;;;5.50;;
79585;SDS011;69054;50.866;4.636;2023-05-23T10:55:56;7.80;;;4.38;;
79585;SDS011;69054;50.866;4.636;2023-05-23T10:58:22;9.07;;;4.90;;
79585;SDS011;69054;50.866;4.636;2023-05-23T11:00:54;9.27;;;4.80;;
79585;SDS011;69054;50.866;4.636;2023-05-23T11:03:30;7.25;;;4.30;;
79585;SDS011;69054;50.866;4.636;2023-05-23T11:05:59;10.23;;;4.90;;
79585;SDS011;69054;50.866;4.636;2023-05-23T11:08:25;9.02;;;4.05;;
79585;SDS011;69054;50.866;4.636;2023-05-23T11:10:54;6.20;;;4.50;;
79585;SDS011;69054;50.866;4.636;2023-05-23T11:13:52;7.13;;;4.30;;
79585;SDS011;69054;50.866;4.636;2023-05-23T11:16:27;8.70;;;4.53;;
79585;SDS011;69054;50.866;4.636;2023-05-23T11:21:53;5.88;;;3.80;;
79585;SDS011;69054;50.866;4.636;2023-05-23T11:24:21;10.20;;;4.60;;
79585;SDS011;69054;50.866;4.636;2023-05-23T11:26:50;6.50;;;3.83;;
79585;SDS011;69054;50.866;4.636;2023-05-23T11:29:23;7.72;;;4.57;;
79585;SDS011;69054;50.866;4.636;2023-05-23T11:31:50;6.80;;;4.45;;
79585;SDS011;69054;50.866;4.636;2023-05-23T11:34:16;8.80;;;4.80;;
79585;SDS011;69054;50.866;4.636;2023-05-23T11:36:42;6.10;;;4.65;;
79585;SDS011;69054;50.866;4.636;2023-05-23T11:39:08;7.32;;;4.18;;
79585;SDS011;69054;50.866;4.636;2023-05-23T11:41:34;7.95;;;5.40;;
79585;SDS011;69054;50.866;4.636;2023-05-23T11:43:59;9.63;;;4.47;;
79585;SDS011;69054;50.866;4.636;2023-05-23T11:46:25;6.10;;;4.30;;
79585;SDS011;69054;50.866;4.636;2023-05-23T11:48:51;13.77;;;5.28;;
79585;SDS011;69054;50.866;4.636;2023-05-23T11:51:17;8.50;;;4.75;;
79585;SDS011;69054;50.866;4.636;2023-05-23T11:53:45;10.32;;;5.25;;
79585;SDS011;69054;50.866;4.636;2023-05-23T11:56:11;9.00;;;4.82;;
79585;SDS011;69054;50.866;4.636;2023-05-23T11:58:38;13.10;;;5.18;;
79585;SDS011;69054;50.866;4.636;2023-05-23T12:01:04;8.43;;;3.80;;
79585;SDS011;69054;50.866;4.636;2023-05-23T12:03:44;8.40;;;4.45;;
79585;SDS011;69054;50.866;4.636;2023-05-23T12:08:48;8.32;;;3.83;;
79585;SDS011;69054;50.866;4.636;2023-05-23T12:11:15;7.28;;;3.83;;
79585;SDS011;69054;50.866;4.636;2023-05-23T12:13:41;9.23;;;4.13;;
79585;SDS011;69054;50.866;4.636;2023-05-23T12:16:07;7.40;;;4.00;;
79585;SDS011;69054;50.866;4.636;2023-05-23T12:18:32;6.90;;;4.00;;
79585;SDS011;69054;50.866;4.636;2023-05-23T12:21:02;8.25;;;4.50;;
79585;SDS011;69054;50.866;4.636;2023-05-23T12:23:30;8.05;;;3.80;;
79585;SDS011;69054;50.866;4.636;2023-05-23T12:25:56;11.20;;;4.35;;
79585;SDS011;69054;50.866;4.636;2023-05-23T12:28:33;7.72;;;3.97;;
79585;SDS011;69054;50.866;4.636;2023-05-23T12:31:19;10.63;;;4.00;;
79585;SDS011;69054;50.866;4.636;2023-05-23T12:33:46;7.68;;;4.18;;
79585;SDS011;69054;50.866;4.636;2023-05-23T12:36:13;8.52;;;3.97;;
79585;SDS011;69054;50.866;4.636;2023-05-23T12:38:40;9.00;;;4.55;;
79585;SDS011;69054;50.866;4.636;2023-05-23T12:43:38;10.32;;;3.85;;
79585;SDS011;69054;50.866;4.636;2023-05-23T12:46:04;7.80;;;3.90;;
79585;SDS011;69054;50.866;4.636;2023-05-23T12:48:30;9.00;;;4.20;;
79585;SDS011;69054;50.866;4.636;2023-05-23T12:50:56;10.75;;;4.32;;
79585;SDS011;69054;50.866;4.636;2023-05-23T12:53:21;8.57;;;3.85;;
79585;SDS011;69054;50.866;4.636;2023-05-23T12:55:47;7.70;;;4.65;;
79585;SDS011;69054;50.866;4.636;2023-05-23T12:58:12;8.63;;;4.57;;
79585;SDS011;69054;50.866;4.636;2023-05-23T13:00:37;6.63;;;4.40;;
79585;SDS011;69054;50.866;4.636;2023-05-23T13:03:03;7.85;;;4.22;;
79585;SDS011;69054;50.866;4.636;2023-05-23T13:05:30;11.05;;;4.03;;
79585;SDS011;69054;50.866;4.636;2023-05-23T13:07:55;10.57;;;4.20;;
79585;SDS011;69054;50.866;4.636;2023-05-23T13:10:23;7.43;;;3.80;;
79585;SDS011;69054;50.866;4.636;2023-05-23T13:12:48;7.68;;;3.67;;
79585;SDS011;69054;50.866;4.636;2023-05-23T13:15:14;14.18;;;4.43;;
79585;SDS011;69054;50.866;4.636;2023-05-23T13:17:40;9.10;;;4.35;;
79585;SDS011;69054;50.866;4.636;2023-05-23T13:20:06;8.32;;;4.30;;
79585;SDS011;69054;50.866;4.636;2023-05-23T13:22:32;7.85;;;4.32;;
79585;SDS011;69054;50.866;4.636;2023-05-23T13:24:57;8.57;;;4.45;;
79585;SDS011;69054;50.866;4.636;2023-05-23T13:27:22;12.35;;;4.80;;
79585;SDS011;69054;50.866;4.636;2023-05-23T13:29:48;11.25;;;4.10;;
79585;SDS011;69054;50.866;4.636;2023-05-23T13:32:13;11.43;;;4.10;;
79585;SDS011;69054;50.866;4.636;2023-05-23T13:34:39;13.00;;;3.95;;
79585;SDS011;69054;50.866;4.636;2023-05-23T13:37:05;9.82;;;4.07;;
79585;SDS011;69054;50.866;4.636;2023-05-23T13:39:31;8.05;;;3.83;;
79585;SDS011;69054;50.866;4.636;2023-05-23T13:41:56;9.27;;;3.83;;
79585;SDS011;69054;50.866;4.636;2023-05-23T13:44:22;10.63;;;4.57;;
79585;SDS011;69054;50.866;4.636;2023-05-23T13:46:47;9.27;;;4.07;;
79585;SDS011;69054;50.866;4.636;2023-05-23T13:49:13;11.60;;;4.45;;
79585;SDS011;69054;50.866;4.636;2023-05-23T13:51:38;8.85;;;5.00;;
79585;SDS011;69054;50.866;4.636;2023-05-23T13:54:04;11.77;;;4.60;;
79585;SDS011;69054;50.866;4.636;2023-05-23T13:56:30;9.43;;;4.55;;
79585;SDS011;69054;50.866;4.636;2023-05-23T13:58:56;11.75;;;4.45;;
79585;SDS011;69054;50.866;4.636;2023-05-23T14:01:21;8.90;;;3.60;;
79585;SDS011;69054;50.866;4.636;2023-05-23T14:03:48;7.90;;;3.83;;
79585;SDS011;69054;50.866;4.636;2023-05-23T14:06:13;13.75;;;3.85;;
79585;SDS011;69054;50.866;4.636;2023-05-23T14:08:39;9.52;;;4.53;;
79585;SDS011;69054;50.866;4.636;2023-05-23T14:11:04;11.18;;;4.50;;
79585;SDS011;69054;50.866;4.636;2023-05-23T14:13:30;12.05;;;4.68;;
79585;SDS011;69054;50.866;4.636;2023-05-23T14:15:55;11.32;;;4.20;;
79585;SDS011;69054;50.866;4.636;2023-05-23T14:18:20;10.65;;;4.38;;
79585;SDS011;69054;50.866;4.636;2023-05-23T14:20:46;7.85;;;4.00;;
79585;SDS011;69054;50.866;4.636;2023-05-23T14:23:11;9.57;;;3.88;;
79585;SDS011;69054;50.866;4.636;2023-05-23T14:25:37;10.05;;;4.60;;
79585;SDS011;69054;50.866;4.636;2023-05-23T14:28:02;12.18;;;4.47;;
79585;SDS011;69054;50.866;4.636;2023-05-23T14:30:27;8.60;;;4.22;;
79585;SDS011;69054;50.866;4.636;2023-05-23T14:32:53;14.63;;;4.10;;
79585;SDS011;69054;50.866;4.636;2023-05-23T14:35:18;8.55;;;4.28;;
79585;SDS011;69054;50.866;4.636;2023-05-23T14:37:46;11.63;;;4.13;;
79585;SDS011;69054;50.866;4.636;2023-05-23T14:40:12;9.05;;;4.10;;
79585;SDS011;69054;50.866;4.636;2023-05-23T14:42:38;12.13;;;4.10;;
79585;SDS011;69054;50.866;4.636;2023-05-23T14:45:04;9.05;;;3.88;;
79585;SDS011;69054;50.866;4.636;2023-05-23T14:47:30;8.90;;;4.05;;
79585;SDS011;69054;50.866;4.636;2023-05-23T14:49:56;10.60;;;4.10;;
79585;SDS011;69054;50.866;4.636;2023-05-23T14:52:21;12.27;;;4.50;;
79585;SDS011;69054;50.866;4.636;2023-05-23T14:54:47;11.48;;;3.67;;